createdAt,value
2023-02-05T00:00:33.782Z,12.07
2023-02-05T00:03:24.366Z,10.90
2023-02-05T00:06:14.476Z,11.00
2023-02-05T00:09:04.935Z,10.70
2023-02-05T00:11:56.657Z,9.55
2023-02-05T00:14:46.513Z,9.65
2023-02-05T00:17:37.914Z,9.38
2023-02-05T00:20:28.634Z,9.43
2023-02-05T00:23:18.595Z,10.52
2023-02-05T00:26:10.660Z,10.15
2023-02-05T00:29:01.174Z,9.88
2023-02-05T00:31:52.877Z,10.00
2023-02-05T00:34:42.922Z,9.48
2023-02-05T00:37:32.991Z,9.52
2023-02-05T00:40:23.044Z,10.18
2023-02-05T00:43:13.257Z,10.43
2023-02-05T00:46:03.201Z,9.98
2023-02-05T00:48:53.477Z,9.77
2023-02-05T00:51:43.966Z,9.55
2023-02-05T00:54:34.309Z,9.10
2023-02-05T00:57:24.779Z,9.63
2023-02-05T01:00:16.060Z,9.38
2023-02-05T01:03:06.924Z,10.88
2023-02-05T01:05:57.527Z,9.55
2023-02-05T01:08:47.993Z,9.40
2023-02-05T01:11:38.711Z,9.35
2023-02-05T01:14:28.854Z,9.43
2023-02-05T01:17:18.932Z,9.95
2023-02-05T01:20:11.779Z,9.07
2023-02-05T01:23:01.652Z,9.98
2023-02-05T01:25:51.509Z,9.70
2023-02-05T01:28:41.274Z,8.68
2023-02-05T01:31:31.394Z,9.75
2023-02-05T01:34:21.604Z,9.27
2023-02-05T01:37:12.125Z,9.18
2023-02-05T01:40:02.604Z,10.20
2023-02-05T01:42:52.742Z,9.18
2023-02-05T01:46:27.670Z,9.05
2023-02-05T01:49:28.146Z,9.20
2023-02-05T01:52:18.319Z,8.93
2023-02-05T01:55:09.087Z,9.30
2023-02-05T01:58:01.388Z,9.48
2023-02-05T02:00:51.596Z,9.85
2023-02-05T02:03:41.894Z,9.63
2023-02-05T02:06:35.057Z,9.52
2023-02-05T02:09:25.316Z,10.20
2023-02-05T02:12:23.714Z,9.85
2023-02-05T02:15:19.136Z,9.55
2023-02-05T02:18:28.049Z,9.05
2023-02-05T02:21:21.349Z,9.75
2023-02-05T02:24:22.943Z,10.15
2023-02-05T02:27:31.851Z,9.40
2023-02-05T02:30:35.450Z,9.73
2023-02-05T02:33:32.004Z,10.77
2023-02-05T02:36:31.754Z,10.82
2023-02-05T02:39:41.601Z,8.93
2023-02-05T02:42:39.731Z,9.55
2023-02-05T02:45:35.537Z,8.55
2023-02-05T02:48:28.882Z,9.30
2023-02-05T02:51:21.437Z,9.38
2023-02-05T02:54:16.041Z,9.20
2023-02-05T02:57:10.389Z,9.27
2023-02-05T03:00:05.834Z,9.48
2023-02-05T03:03:05.138Z,9.30
2023-02-05T03:05:58.573Z,9.85
2023-02-05T03:11:51.548Z,8.85
2023-02-05T03:14:43.754Z,8.68
2023-02-05T03:17:34.990Z,8.60
2023-02-05T03:20:33.334Z,10.57
2023-02-05T03:23:26.719Z,8.73
2023-02-05T03:26:38.343Z,8.75
2023-02-05T03:29:47.423Z,8.15
2023-02-05T03:33:07.816Z,9.48
2023-02-05T03:36:08.650Z,8.60
2023-02-05T03:39:21.761Z,7.78
2023-02-05T03:42:19.225Z,8.55
2023-02-05T03:45:42.989Z,8.18
2023-02-05T03:48:56.126Z,7.95
2023-02-05T03:51:54.890Z,8.32
2023-02-05T03:55:17.375Z,8.77
2023-02-05T03:58:21.848Z,8.80
2023-02-05T04:01:13.110Z,9.25
2023-02-05T04:06:56.145Z,8.90
2023-02-05T04:09:46.338Z,8.63
2023-02-05T04:12:37.305Z,8.68
2023-02-05T04:15:28.716Z,8.35
2023-02-05T04:18:21.153Z,9.00
2023-02-05T04:21:12.364Z,8.23
2023-02-05T04:24:08.749Z,7.65
2023-02-05T04:26:58.717Z,7.55
2023-02-05T04:29:49.685Z,7.97
2023-02-05T04:32:40.100Z,7.57
2023-02-05T04:35:30.561Z,8.70
2023-02-05T04:38:21.481Z,8.00
2023-02-05T04:41:12.117Z,8.07
2023-02-05T04:44:02.715Z,8.15
2023-02-05T04:46:53.093Z,8.40
2023-02-05T04:49:43.408Z,8.07
2023-02-05T04:52:33.351Z,8.13
2023-02-05T04:55:23.369Z,8.15
2023-02-05T04:58:13.434Z,7.60
2023-02-05T05:01:04.313Z,7.75
2023-02-05T05:03:54.688Z,8.80
2023-02-05T05:06:44.569Z,7.90
2023-02-05T05:09:36.658Z,8.20
2023-02-05T05:12:26.847Z,8.02
2023-02-05T05:15:16.853Z,7.63
2023-02-05T05:18:06.716Z,8.25
2023-02-05T05:20:56.688Z,8.32
2023-02-05T05:23:46.938Z,8.40
2023-02-05T05:26:39.290Z,7.65
2023-02-05T05:29:29.554Z,8.60
2023-02-05T05:32:19.887Z,7.93
2023-02-05T05:35:09.835Z,8.18
2023-02-05T05:38:00.682Z,7.60
2023-02-05T05:41:09.267Z,7.68
2023-02-05T05:43:59.490Z,8.32
2023-02-05T05:46:49.496Z,8.35
2023-02-05T05:49:39.412Z,8.65
2023-02-05T05:52:32.090Z,8.82
2023-02-05T05:55:22.697Z,8.13
2023-02-05T05:58:13.107Z,7.93
2023-02-05T06:01:03.414Z,8.63
2023-02-05T06:03:53.619Z,7.85
2023-02-05T06:06:43.389Z,8.38
2023-02-05T06:09:33.350Z,7.75
2023-02-05T06:12:23.257Z,7.40
2023-02-05T06:15:13.318Z,7.03
2023-02-05T06:18:03.372Z,6.95
2023-02-05T06:20:53.577Z,6.97
2023-02-05T06:23:44.016Z,7.10
2023-02-05T06:26:34.412Z,6.97
2023-02-05T06:29:24.816Z,6.90
2023-02-05T06:32:14.845Z,7.50
2023-02-05T06:35:05.084Z,6.95
2023-02-05T06:37:55.125Z,7.65
2023-02-05T06:40:47.224Z,7.57
2023-02-05T06:43:37.329Z,7.00
2023-02-05T06:46:27.215Z,7.78
2023-02-05T06:49:17.552Z,7.10
2023-02-05T06:52:07.688Z,7.78
2023-02-05T06:54:57.987Z,8.02
2023-02-05T06:57:48.442Z,7.95
2023-02-05T07:00:38.885Z,8.23
2023-02-05T07:03:29.043Z,8.50
2023-02-05T07:06:19.455Z,8.30
2023-02-05T07:09:10.014Z,7.45
2023-02-05T07:12:00.438Z,8.20
2023-02-05T07:14:50.636Z,9.10
2023-02-05T07:17:40.404Z,8.15
2023-02-05T07:20:30.619Z,8.35
2023-02-05T07:23:20.954Z,7.78
2023-02-05T07:26:16.075Z,8.88
2023-02-05T07:29:05.871Z,9.15
2023-02-05T07:31:55.694Z,9.85
2023-02-05T07:34:46.115Z,9.40
2023-02-05T07:37:37.438Z,8.65
2023-02-05T07:40:27.538Z,9.57
2023-02-05T07:43:17.478Z,9.88
2023-02-05T07:46:10.565Z,11.20
2023-02-05T07:49:00.871Z,10.32
2023-02-05T07:51:51.088Z,9.93
2023-02-05T07:54:41.542Z,11.02
2023-02-05T07:57:31.820Z,11.43
2023-02-05T08:00:21.874Z,10.23
2023-02-05T08:03:12.504Z,11.13
2023-02-05T08:06:07.142Z,11.00
2023-02-05T08:08:57.280Z,12.30
2023-02-05T08:11:47.111Z,11.02
2023-02-05T08:14:36.898Z,9.20
2023-02-05T08:17:26.715Z,8.77
2023-02-05T08:20:17.020Z,9.32
2023-02-05T08:23:06.994Z,9.57
2023-02-05T08:25:58.147Z,9.57
2023-02-05T08:28:48.526Z,9.88
2023-02-05T08:31:38.829Z,9.77
2023-02-05T08:34:34.187Z,10.25
2023-02-05T08:37:25.098Z,10.10
2023-02-05T08:40:21.212Z,10.65
2023-02-05T08:43:11.450Z,14.63
2023-02-05T08:46:03.687Z,9.35
2023-02-05T08:48:54.314Z,9.32
2023-02-05T08:51:44.767Z,9.95
2023-02-05T08:54:35.064Z,9.70
2023-02-05T08:57:30.100Z,9.65
2023-02-05T09:00:21.193Z,9.05
2023-02-05T09:03:11.834Z,10.85
2023-02-05T09:06:07.144Z,10.85
2023-02-05T09:08:57.445Z,10.40
2023-02-05T09:11:48.262Z,10.23
2023-02-05T09:14:39.435Z,11.27
2023-02-05T09:17:29.660Z,10.70
2023-02-05T09:20:20.152Z,11.88
2023-02-05T09:23:12.841Z,11.98
2023-02-05T09:26:03.677Z,12.52
2023-02-05T09:28:53.715Z,12.82
2023-02-05T09:31:43.643Z,11.45
2023-02-05T09:34:33.594Z,12.00
2023-02-05T09:37:23.660Z,12.35
2023-02-05T09:40:21.823Z,13.10
2023-02-05T09:43:38.611Z,13.82
2023-02-05T09:46:29.005Z,13.05
2023-02-05T09:49:22.779Z,12.85
2023-02-05T09:52:20.539Z,14.50
2023-02-05T09:55:23.647Z,13.50
2023-02-05T09:58:23.253Z,19.13
2023-02-05T10:01:20.640Z,14.60
2023-02-05T10:04:11.530Z,13.15
2023-02-05T10:07:12.387Z,13.75
2023-02-05T10:10:22.325Z,14.38
2023-02-05T10:13:36.833Z,15.18
2023-02-05T10:16:48.385Z,15.55
2023-02-05T10:20:07.303Z,16.23
2023-02-05T10:23:17.041Z,15.35
2023-02-05T10:26:12.894Z,14.80
2023-02-05T10:29:21.317Z,13.57
2023-02-05T10:32:23.564Z,14.10
2023-02-05T10:35:13.711Z,14.00
2023-02-05T10:38:09.550Z,14.93
2023-02-05T10:41:07.352Z,13.52
2023-02-05T10:44:22.128Z,13.73
2023-02-05T10:47:18.688Z,13.60
2023-02-05T10:50:27.499Z,13.75
2023-02-05T10:53:21.514Z,14.05
2023-02-05T10:56:19.322Z,14.32
2023-02-05T10:59:20.430Z,13.98
2023-02-05T11:02:11.644Z,13.80
2023-02-05T11:05:06.511Z,14.50
2023-02-05T11:07:58.482Z,14.38
2023-02-05T11:10:53.392Z,14.25
2023-02-05T11:13:51.482Z,14.65
2023-02-05T11:16:44.566Z,14.25
2023-02-05T11:19:34.955Z,15.27
2023-02-05T11:22:28.378Z,15.25
2023-02-05T11:25:27.157Z,14.63
2023-02-05T11:28:31.287Z,15.07
2023-02-05T11:31:26.215Z,14.70
2023-02-05T11:34:17.755Z,15.02
2023-02-05T11:37:17.116Z,15.93
2023-02-05T11:40:19.134Z,15.27
2023-02-05T11:43:26.289Z,16.13
2023-02-05T11:46:23.067Z,14.52
2023-02-05T11:49:22.455Z,14.57
2023-02-05T11:52:15.124Z,14.73
2023-02-05T11:55:06.805Z,14.45
2023-02-05T11:58:05.362Z,17.83
2023-02-05T12:00:58.737Z,15.93
2023-02-05T12:04:03.278Z,15.65
2023-02-05T12:06:57.567Z,15.05
2023-02-05T12:09:48.471Z,16.08
2023-02-05T12:12:50.400Z,15.65
2023-02-05T12:16:22.058Z,14.60
2023-02-05T12:19:14.314Z,15.65
2023-02-05T12:22:18.533Z,14.55
2023-02-05T12:28:40.292Z,14.95
2023-02-05T12:31:49.321Z,17.55
2023-02-05T12:35:24.333Z,19.17
2023-02-05T12:38:51.935Z,15.65
2023-02-05T12:42:21.100Z,14.68
2023-02-05T12:45:36.773Z,15.65
2023-02-05T12:48:42.568Z,15.05
2023-02-05T12:51:42.798Z,15.25
2023-02-05T12:54:58.497Z,14.25
2023-02-05T12:57:57.434Z,15.25
2023-02-05T13:00:54.492Z,15.65
2023-02-05T13:03:53.100Z,15.32
2023-02-05T13:06:52.691Z,18.90
2023-02-05T13:09:47.780Z,18.77
2023-02-05T13:12:43.242Z,15.82
2023-02-05T13:15:42.872Z,16.05
2023-02-05T13:18:38.452Z,16.60
2023-02-05T13:21:47.740Z,39.97
2023-02-05T13:25:08.198Z,17.08
2023-02-05T13:28:22.980Z,14.85
2023-02-05T13:31:43.938Z,15.02
2023-02-05T13:34:35.321Z,18.73
2023-02-05T13:37:39.739Z,22.10
2023-02-05T13:40:43.527Z,14.30
2023-02-05T13:44:16.206Z,16.30
2023-02-05T13:47:19.835Z,16.90
2023-02-05T13:50:35.730Z,15.80
2023-02-05T13:53:53.037Z,18.33
2023-02-05T13:57:05.149Z,13.55
2023-02-05T13:59:56.333Z,12.43
2023-02-05T14:02:49.383Z,9.73
2023-02-05T14:05:42.628Z,9.50
2023-02-05T14:08:38.496Z,9.95
2023-02-05T14:11:34.324Z,8.95
2023-02-05T14:14:31.304Z,8.63
2023-02-05T14:17:31.077Z,9.65
2023-02-05T14:20:24.315Z,9.43
2023-02-05T14:23:53.233Z,7.05
2023-02-05T14:26:49.396Z,8.05
2023-02-05T14:29:45.672Z,6.15
2023-02-05T14:32:38.745Z,7.88
2023-02-05T14:35:32.843Z,8.05
2023-02-05T14:38:28.577Z,6.95
2023-02-05T14:41:40.648Z,5.82
2023-02-05T14:44:38.188Z,5.13
2023-02-05T14:47:33.661Z,5.30
2023-02-05T14:50:29.656Z,5.20
2023-02-05T14:53:29.644Z,4.95
2023-02-05T14:56:31.716Z,5.00
2023-02-05T14:59:40.527Z,4.78
2023-02-05T15:03:02.183Z,4.78
2023-02-05T15:05:56.759Z,5.15
2023-02-05T15:09:04.792Z,5.35
2023-02-05T15:12:07.061Z,5.45
2023-02-05T15:14:58.091Z,5.90
2023-02-05T15:17:51.418Z,5.63
2023-02-05T15:20:47.342Z,5.88
2023-02-05T15:23:44.882Z,5.78
2023-02-05T15:26:47.436Z,5.90
2023-02-05T15:29:42.465Z,6.18
2023-02-05T15:32:41.065Z,5.60
2023-02-05T15:35:33.625Z,6.43
2023-02-05T15:38:49.945Z,6.22
2023-02-05T15:41:44.224Z,6.22
2023-02-05T15:44:36.096Z,7.05
2023-02-05T15:47:26.995Z,8.38
2023-02-05T15:50:17.048Z,7.95
2023-02-05T15:53:10.477Z,7.40
2023-02-05T15:56:08.425Z,7.65
2023-02-05T15:59:03.512Z,7.30
2023-02-05T16:02:05.551Z,8.13
2023-02-05T16:05:19.234Z,8.60
2023-02-05T16:08:18.100Z,8.07
2023-02-05T16:11:08.443Z,8.57
2023-02-05T16:14:04.565Z,8.98
2023-02-05T16:17:00.886Z,9.18
2023-02-05T16:19:54.195Z,9.30
2023-02-05T16:22:57.792Z,8.80
2023-02-05T16:25:57.422Z,8.07
2023-02-05T16:28:52.339Z,9.05
2023-02-05T16:31:42.725Z,9.07
2023-02-05T16:34:36.553Z,10.85
2023-02-05T16:37:30.519Z,11.40
2023-02-05T16:40:37.351Z,11.35
2023-02-05T16:43:39.218Z,20.17
2023-02-05T16:46:36.482Z,17.92
2023-02-05T16:49:26.787Z,21.58
2023-02-05T16:52:25.226Z,14.02
2023-02-05T16:55:15.317Z,12.63
2023-02-05T16:58:06.294Z,13.73
2023-02-05T17:01:01.683Z,16.42
2023-02-05T17:03:51.922Z,16.38
2023-02-05T17:06:41.894Z,15.40
2023-02-05T17:09:35.607Z,15.25
2023-02-05T17:12:37.447Z,20.48
2023-02-05T17:15:33.482Z,15.57
2023-02-05T17:18:29.730Z,15.60
2023-02-05T17:21:22.355Z,13.73
2023-02-05T17:24:14.564Z,12.73
2023-02-05T17:27:04.909Z,11.40
2023-02-05T17:29:56.900Z,13.82
2023-02-05T17:32:48.104Z,15.93
2023-02-05T17:35:38.325Z,12.02
2023-02-05T17:38:28.275Z,10.63
2023-02-05T17:41:39.741Z,8.93
2023-02-05T17:44:31.363Z,9.63
2023-02-05T17:47:21.750Z,14.55
2023-02-05T17:50:15.073Z,13.32
2023-02-05T17:53:05.930Z,15.57
2023-02-05T17:55:56.066Z,8.90
2023-02-05T17:58:46.368Z,9.98
2023-02-05T18:01:36.736Z,13.57
2023-02-05T18:04:26.720Z,9.30
2023-02-05T18:07:24.067Z,10.30
2023-02-05T18:10:18.295Z,8.63
2023-02-05T18:13:08.541Z,11.73
2023-02-05T18:16:03.264Z,8.55
2023-02-05T18:18:53.473Z,10.93
2023-02-05T18:21:46.512Z,9.73
2023-02-05T18:24:37.048Z,9.50
2023-02-05T18:27:27.530Z,9.65
2023-02-05T18:30:17.676Z,9.65
2023-02-05T18:33:07.850Z,9.75
2023-02-05T18:36:03.441Z,7.55
2023-02-05T18:38:55.673Z,7.45
2023-02-05T18:41:45.627Z,7.45
2023-02-05T18:44:35.463Z,7.57
2023-02-05T18:47:25.186Z,9.73
2023-02-05T18:50:16.442Z,14.10
2023-02-05T18:53:06.648Z,8.48
2023-02-05T18:56:04.981Z,7.43
2023-02-05T18:59:02.152Z,7.40
2023-02-05T19:01:53.191Z,8.93
2023-02-05T19:04:44.365Z,9.32
2023-02-05T19:07:34.584Z,10.00
2023-02-05T19:10:25.037Z,9.55
2023-02-05T19:13:15.090Z,9.55
2023-02-05T19:16:13.842Z,10.40
2023-02-05T19:19:04.877Z,9.82
2023-02-05T19:21:59.987Z,9.68
2023-02-05T19:24:50.137Z,11.32
2023-02-05T19:27:40.197Z,10.18
2023-02-05T19:30:30.377Z,10.38
2023-02-05T19:33:20.733Z,10.65
2023-02-05T19:36:10.888Z,10.07
2023-02-05T19:39:04.144Z,10.80
2023-02-05T19:41:54.069Z,11.52
2023-02-05T19:44:44.070Z,43.92
2023-02-05T19:47:34.344Z,18.48
2023-02-05T19:50:25.796Z,11.43
2023-02-05T19:53:17.097Z,13.52
2023-02-05T19:56:14.322Z,14.18
2023-02-05T19:59:05.832Z,13.93
2023-02-05T20:01:55.829Z,13.98
2023-02-05T20:04:45.816Z,12.38
2023-02-05T20:07:38.371Z,14.10
2023-02-05T20:10:28.442Z,13.45
2023-02-05T20:13:18.335Z,14.48
2023-02-05T20:16:17.343Z,15.57
2023-02-05T20:19:10.694Z,14.27
2023-02-05T20:22:00.873Z,14.40
2023-02-05T20:24:51.063Z,15.65
2023-02-05T20:27:41.178Z,15.32
2023-02-05T20:30:49.794Z,14.07
2023-02-05T20:33:40.052Z,14.57
2023-02-05T20:36:31.428Z,14.68
2023-02-05T20:39:24.100Z,14.52
2023-02-05T20:42:15.265Z,14.43
2023-02-05T20:45:05.312Z,14.65
2023-02-05T20:47:55.298Z,15.23
2023-02-05T20:50:45.222Z,14.80
2023-02-05T20:53:35.450Z,16.38
2023-02-05T20:56:27.342Z,14.88
2023-02-05T20:59:17.584Z,15.15
2023-02-05T21:02:09.534Z,15.85
2023-02-05T21:05:00.159Z,16.63
2023-02-05T21:07:51.200Z,16.17
2023-02-05T21:10:41.558Z,16.85
2023-02-05T21:13:31.875Z,16.10
2023-02-05T21:16:23.487Z,17.35
2023-02-05T21:19:13.530Z,17.40
2023-02-05T21:22:03.530Z,17.30
2023-02-05T21:24:53.665Z,17.05
2023-02-05T21:27:43.492Z,16.48
2023-02-05T21:30:34.715Z,18.08
2023-02-05T21:33:26.389Z,18.38
2023-02-05T21:36:19.157Z,18.85
2023-02-05T21:39:15.622Z,19.88
2023-02-05T21:42:05.522Z,20.40
2023-02-05T21:44:55.488Z,18.73
2023-02-05T21:47:45.442Z,19.38
2023-02-05T21:50:37.815Z,19.50
2023-02-05T21:53:28.204Z,19.90
2023-02-05T21:56:18.153Z,20.55
2023-02-05T21:59:10.606Z,20.58
2023-02-05T22:02:01.028Z,20.25
2023-02-05T22:04:51.532Z,21.02
2023-02-05T22:07:41.460Z,20.63
2023-02-05T22:10:31.560Z,21.90
2023-02-05T22:13:21.500Z,20.85
2023-02-05T22:16:14.732Z,21.38
2023-02-05T22:19:06.208Z,20.95
2023-02-05T22:21:56.345Z,21.38
2023-02-05T22:24:46.142Z,22.80
2023-02-05T22:27:36.192Z,22.83
2023-02-05T22:30:26.121Z,22.58
2023-02-05T22:33:16.098Z,22.98
2023-02-05T22:36:07.927Z,20.92
2023-02-05T22:38:58.462Z,23.15
2023-02-05T22:41:48.554Z,23.85
2023-02-05T22:44:38.333Z,23.02
2023-02-05T22:47:29.193Z,24.08
2023-02-05T22:50:19.128Z,25.27
2023-02-05T22:53:10.581Z,26.15
2023-02-05T22:56:06.132Z,25.05
2023-02-05T22:58:56.675Z,25.27
2023-02-05T23:01:46.965Z,26.50
2023-02-05T23:04:37.078Z,25.95
2023-02-05T23:07:27.270Z,27.90
2023-02-05T23:10:19.621Z,28.02
2023-02-05T23:13:09.687Z,29.30
2023-02-05T23:16:27.349Z,27.45
2023-02-05T23:19:20.128Z,28.80
2023-02-05T23:22:10.360Z,27.45
2023-02-05T23:25:00.635Z,28.38
2023-02-05T23:27:51.182Z,28.52
2023-02-05T23:30:41.856Z,29.17
2023-02-05T23:33:32.838Z,29.85
2023-02-05T23:36:23.268Z,28.83
2023-02-05T23:39:13.333Z,26.58
2023-02-05T23:42:05.654Z,27.73
2023-02-05T23:44:55.535Z,27.45
2023-02-05T23:47:45.505Z,28.52
2023-02-05T23:50:36.285Z,28.95
2023-02-05T23:53:26.883Z,27.67
2023-02-05T23:56:16.639Z,29.38
2023-02-05T23:59:07.644Z,28.35
